createdAt,value
2022-11-20T00:00:02.543Z,18.98
2022-11-20T00:05:37.150Z,18.92
2022-11-20T00:10:44.118Z,18.80
2022-11-20T00:15:50.899Z,18.85
2022-11-20T00:21:05.643Z,20.85
2022-11-20T00:26:14.877Z,19.90
2022-11-20T00:31:21.400Z,20.50
2022-11-20T00:36:31.912Z,18.85
2022-11-20T00:41:38.869Z,19.45
2022-11-20T00:46:46.803Z,20.38
2022-11-20T00:51:54.713Z,20.00
2022-11-20T00:57:01.384Z,17.23
2022-11-20T01:02:07.893Z,19.23
2022-11-20T01:07:16.139Z,18.30
2022-11-20T01:12:22.867Z,19.48
2022-11-20T01:17:30.440Z,19.20
2022-11-20T01:22:38.762Z,17.67
2022-11-20T01:27:45.457Z,18.02
2022-11-20T01:32:51.722Z,17.42
2022-11-20T01:37:59.573Z,19.13
2022-11-20T01:43:23.593Z,22.10
2022-11-20T01:48:36.975Z,18.52
2022-11-20T01:53:45.752Z,19.27
2022-11-20T01:58:57.094Z,18.05
2022-11-20T02:04:04.369Z,19.95
2022-11-20T02:09:13.924Z,18.17
2022-11-20T02:14:20.344Z,17.37
2022-11-20T02:19:32.600Z,17.00
2022-11-20T02:24:40.761Z,15.60
2022-11-20T02:29:53.685Z,16.67
2022-11-20T02:35:00.264Z,16.25
2022-11-20T02:40:10.703Z,15.80
2022-11-20T02:45:18.853Z,15.05
2022-11-20T02:50:25.385Z,16.27
2022-11-20T02:55:33.395Z,14.00
2022-11-20T03:00:39.910Z,14.95
2022-11-20T03:05:46.185Z,13.93
2022-11-20T03:10:55.136Z,13.38
2022-11-20T03:21:07.883Z,13.38
2022-11-20T03:26:20.129Z,13.35
2022-11-20T03:31:29.358Z,11.93
2022-11-20T03:36:36.550Z,13.70
2022-11-20T03:41:45.169Z,13.45
2022-11-20T03:46:51.670Z,12.30
2022-11-20T03:51:58.052Z,12.32
2022-11-20T03:57:05.658Z,14.15
2022-11-20T04:02:12.374Z,13.00
2022-11-20T04:07:18.888Z,12.27
2022-11-20T04:12:26.858Z,11.85
2022-11-20T04:17:33.497Z,9.73
2022-11-20T04:22:39.622Z,12.35
2022-11-20T04:27:48.240Z,12.10
2022-11-20T04:38:00.938Z,13.23
2022-11-20T04:43:09.032Z,13.07
2022-11-20T04:48:15.214Z,12.57
2022-11-20T04:53:22.230Z,14.40
2022-11-20T04:58:30.040Z,12.75
2022-11-20T05:03:39.801Z,13.82
2022-11-20T05:08:49.002Z,12.93
2022-11-20T05:13:57.428Z,13.68
2022-11-20T05:19:04.382Z,15.57
2022-11-20T05:24:11.045Z,15.65
2022-11-20T05:29:19.113Z,15.90
2022-11-20T05:34:26.008Z,15.50
2022-11-20T05:39:32.183Z,15.52
2022-11-20T05:44:40.119Z,15.32
2022-11-20T05:49:46.521Z,16.90
2022-11-20T05:54:53.180Z,16.88
2022-11-20T06:00:00.916Z,20.15
2022-11-20T06:05:08.552Z,20.63
2022-11-20T06:10:15.074Z,19.40
2022-11-20T06:15:22.961Z,17.52
2022-11-20T06:20:29.365Z,16.00
2022-11-20T06:25:35.806Z,15.55
2022-11-20T06:30:48.356Z,17.10
2022-11-20T06:35:59.709Z,15.90
2022-11-20T06:41:08.080Z,18.17
2022-11-20T06:46:18.907Z,16.40
2022-11-20T06:51:25.199Z,15.40
2022-11-20T06:56:31.558Z,16.25
2022-11-20T07:01:39.611Z,16.77
2022-11-20T07:06:45.934Z,14.48
2022-11-20T07:11:52.058Z,17.52
2022-11-20T07:16:59.628Z,16.25
2022-11-20T07:22:05.832Z,17.42
2022-11-20T07:27:11.998Z,17.83
2022-11-20T07:32:19.773Z,17.67
2022-11-20T07:37:25.892Z,16.73
2022-11-20T07:42:32.689Z,16.48
2022-11-20T07:47:43.302Z,17.52
2022-11-20T07:52:53.545Z,17.42
2022-11-20T07:58:00.267Z,17.52
2022-11-20T08:03:09.378Z,15.65
2022-11-20T08:08:16.009Z,17.10
2022-11-20T08:13:39.584Z,17.25
2022-11-20T08:18:47.403Z,16.63
2022-11-20T08:23:53.751Z,16.67
2022-11-20T08:29:01.350Z,15.90
2022-11-20T08:34:09.920Z,17.52
2022-11-20T08:39:17.584Z,14.93
2022-11-20T08:44:23.851Z,17.02
2022-11-20T08:49:31.705Z,16.23
2022-11-20T08:54:37.773Z,15.85
2022-11-20T09:00:04.244Z,14.77
2022-11-20T09:05:12.252Z,15.85
2022-11-20T09:10:25.796Z,15.60
2022-11-20T09:15:32.086Z,16.30
2022-11-20T09:20:39.776Z,15.27
2022-11-20T09:25:46.681Z,17.88
2022-11-20T09:30:53.223Z,16.63
2022-11-20T09:36:01.085Z,15.82
2022-11-20T09:41:09.914Z,14.65
2022-11-20T09:46:24.544Z,17.98
2022-11-20T09:51:46.302Z,17.45
2022-11-20T09:56:57.977Z,19.17
2022-11-20T10:02:16.059Z,19.92
2022-11-20T10:07:33.260Z,19.93
2022-11-20T10:12:58.301Z,18.80
2022-11-20T10:18:26.230Z,21.02
2022-11-20T10:24:04.581Z,19.43
2022-11-20T10:29:16.319Z,21.85
2022-11-20T10:34:29.818Z,20.17
2022-11-20T10:39:45.340Z,19.10
2022-11-20T10:45:06.349Z,19.48
2022-11-20T10:50:22.611Z,21.88
2022-11-20T10:55:43.602Z,19.17
2022-11-20T11:00:50.938Z,20.40
2022-11-20T11:06:06.644Z,20.15
2022-11-20T11:11:25.342Z,21.80
2022-11-20T11:16:31.915Z,20.90
2022-11-20T11:21:42.801Z,20.20
2022-11-20T11:27:00.461Z,19.05
2022-11-20T11:32:09.722Z,21.17
2022-11-20T11:37:22.881Z,25.85
2022-11-20T11:42:32.553Z,21.55
2022-11-20T11:47:48.315Z,21.08
2022-11-20T11:53:11.726Z,19.05
2022-11-20T11:58:43.264Z,20.33
2022-11-20T12:04:05.063Z,18.92
2022-11-20T12:09:14.753Z,22.75
2022-11-20T12:14:31.131Z,20.83
2022-11-20T12:19:38.453Z,18.63
2022-11-20T12:25:00.576Z,21.17
2022-11-20T12:30:17.611Z,19.52
2022-11-20T12:35:51.999Z,24.77
2022-11-20T12:41:08.729Z,21.92
2022-11-20T12:46:33.409Z,19.48
2022-11-20T12:52:07.161Z,20.27
2022-11-20T12:57:26.607Z,19.38
2022-11-20T13:03:01.042Z,20.33
2022-11-20T13:08:21.325Z,23.08
2022-11-20T13:13:40.696Z,19.67
2022-11-20T13:18:49.700Z,19.98
2022-11-20T13:24:08.544Z,17.65
2022-11-20T13:29:21.041Z,27.27
2022-11-20T13:34:31.934Z,25.83
2022-11-20T13:39:39.916Z,23.45
2022-11-20T13:50:03.023Z,31.30
2022-11-20T13:55:23.996Z,39.78
2022-11-20T14:00:32.233Z,33.67
2022-11-20T14:05:52.023Z,26.73
2022-11-20T14:11:19.685Z,24.55
2022-11-20T14:16:31.872Z,22.38
2022-11-20T14:21:41.475Z,21.50
2022-11-20T14:26:51.234Z,22.15
2022-11-20T14:31:59.976Z,23.20
2022-11-20T14:37:16.815Z,23.63
2022-11-20T14:42:28.337Z,20.17
2022-11-20T14:47:35.406Z,18.30
2022-11-20T14:52:55.176Z,20.63
2022-11-20T14:58:06.677Z,21.05
2022-11-20T15:03:19.886Z,20.85
2022-11-20T15:08:29.616Z,22.98
2022-11-20T15:13:41.194Z,23.52
2022-11-20T15:18:48.647Z,21.55
2022-11-20T15:23:57.693Z,23.05
2022-11-20T15:29:05.359Z,20.60
2022-11-20T15:34:15.149Z,22.48
2022-11-20T15:39:25.221Z,23.88
2022-11-20T15:44:32.812Z,25.75
2022-11-20T15:49:40.682Z,22.95
2022-11-20T15:54:50.406Z,23.27
2022-11-20T16:00:01.700Z,24.02
2022-11-20T16:05:19.642Z,25.42
2022-11-20T16:10:28.708Z,30.53
2022-11-20T16:15:49.448Z,29.15
2022-11-20T16:20:59.245Z,26.10
2022-11-20T16:26:15.436Z,24.38
2022-11-20T16:31:23.986Z,21.10
2022-11-20T16:36:33.026Z,19.95
2022-11-20T16:41:42.761Z,20.60
2022-11-20T16:46:50.746Z,20.48
2022-11-20T16:51:58.572Z,20.80
2022-11-20T16:57:09.377Z,19.80
2022-11-20T17:02:16.842Z,20.80
2022-11-20T17:07:24.498Z,22.57
2022-11-20T17:12:34.073Z,21.83
2022-11-20T17:17:42.126Z,23.65
2022-11-20T17:22:50.416Z,21.77
2022-11-20T17:28:00.550Z,21.33
2022-11-20T17:33:08.552Z,19.73
2022-11-20T17:38:16.157Z,19.75
2022-11-20T17:43:29.306Z,23.40
2022-11-20T17:48:43.143Z,21.02
2022-11-20T17:53:54.159Z,22.48
2022-11-20T17:59:07.181Z,21.13
2022-11-20T18:04:16.743Z,21.95
2022-11-20T18:09:26.849Z,18.05
2022-11-20T18:14:37.170Z,18.92
2022-11-20T18:20:07.099Z,19.30
2022-11-20T18:25:16.132Z,21.67
2022-11-20T18:30:25.216Z,21.70
2022-11-20T18:35:33.027Z,21.48
2022-11-20T18:40:40.159Z,20.45
2022-11-20T18:45:49.406Z,20.65
2022-11-20T18:50:58.074Z,21.45
2022-11-20T18:56:08.146Z,20.85
2022-11-20T19:01:18.018Z,20.40
2022-11-20T19:06:26.611Z,23.70
2022-11-20T19:11:35.670Z,23.65
2022-11-20T19:16:46.040Z,21.77
2022-11-20T19:21:54.949Z,21.80
2022-11-20T19:27:03.683Z,21.63
2022-11-20T19:32:13.751Z,21.70
2022-11-20T19:42:29.488Z,21.52
2022-11-20T19:53:08.390Z,20.52
2022-11-20T19:58:16.818Z,19.57
2022-11-20T20:03:30.141Z,18.38
2022-11-20T20:08:38.465Z,21.60
2022-11-20T20:13:48.554Z,22.30
2022-11-20T20:19:02.757Z,24.52
2022-11-20T20:24:14.985Z,23.83
2022-11-20T20:29:25.330Z,24.10
2022-11-20T20:34:34.911Z,22.98
2022-11-20T20:45:09.159Z,23.20
2022-11-20T20:50:19.495Z,26.15
2022-11-20T20:55:27.067Z,21.85
2022-11-20T21:00:35.175Z,24.60
2022-11-20T21:10:56.789Z,21.65
2022-11-20T21:16:04.473Z,27.00
2022-11-20T21:21:35.586Z,22.58
2022-11-20T21:26:43.038Z,30.10
2022-11-20T21:31:51.399Z,24.58
2022-11-20T21:36:59.433Z,23.00
2022-11-20T21:42:06.525Z,30.60
2022-11-20T21:47:13.832Z,23.95
2022-11-20T21:52:21.870Z,28.02
2022-11-20T21:57:28.119Z,24.33
2022-11-20T22:02:34.435Z,26.25
2022-11-20T22:07:46.092Z,26.75
2022-11-20T22:12:52.628Z,26.88
2022-11-20T22:18:14.319Z,27.80
2022-11-20T22:23:22.411Z,25.35
2022-11-20T22:28:28.568Z,25.33
2022-11-20T22:33:37.821Z,26.75
2022-11-20T22:38:46.016Z,25.30
2022-11-20T22:43:56.905Z,23.77
2022-11-20T22:49:05.639Z,25.55
2022-11-20T22:59:20.297Z,24.17
2022-11-20T23:04:26.814Z,25.27
2022-11-20T23:09:34.645Z,25.15
2022-11-20T23:14:40.945Z,23.60
2022-11-20T23:19:47.333Z,24.85
2022-11-20T23:24:55.045Z,24.88
2022-11-20T23:30:01.358Z,20.40
2022-11-20T23:35:10.921Z,23.02
2022-11-20T23:40:19.023Z,21.67
2022-11-20T23:45:25.476Z,24.75
2022-11-20T23:50:31.913Z,26.35
2022-11-20T23:55:40.158Z,30.05
